Terminal Aerodrome Forecast
Issued by NWS Quad Cities IA IL

Home | Current Version | Previous Version | Text Only | Print | Product List | Glossary On
Versions: 1 2 3 4 5 6 7 8 9 10 11 12 13 14 15 16
000
FTUS43 KDVN 142300
TAFDBQ
TAF
KDBQ 142320Z 1500/1524 23008KT P6SM SCT050 BKN120 PROB30 1510/1513
      -SHRA BKN050
     FM151300 15004KT 5SM -RA BR BKN025 OVC050
     FM151800 36010KT P6SM OVC025
      TEMPO 1518/1520 -SHRA
     FM152000 35010KT P6SM BKN035=

USA.gov is the U.S. government's official web portal to all federal, state and local government web resources and services.